sensor_id;sensor_type;location;lat;lon;timestamp;pressure;altitude;pressure_sealevel;temperature;humidity
78751;BME280;68070;50.954;11.060;2023-11-19T00:01:55;98725.23;;;6.14;77.67
78751;BME280;68070;50.954;11.060;2023-11-19T00:04:21;98728.05;;;6.18;77.20
78751;BME280;68070;50.954;11.060;2023-11-19T00:06:48;98722.11;;;6.22;77.48
78751;BME280;68070;50.954;11.060;2023-11-19T00:09:13;98721.63;;;6.28;77.42
78751;BME280;68070;50.954;11.060;2023-11-19T00:11:38;98722.66;;;6.30;77.63
78751;BME280;68070;50.954;11.060;2023-11-19T00:14:04;98719.40;;;6.35;77.46
78751;BME280;68070;50.954;11.060;2023-11-19T00:16:29;98705.75;;;6.35;77.24
78751;BME280;68070;50.954;11.060;2023-11-19T00:18:57;98704.48;;;6.38;77.14
78751;BME280;68070;50.954;11.060;2023-11-19T00:21:22;98702.36;;;6.38;77.14
78751;BME280;68070;50.954;11.060;2023-11-19T00:23:47;98707.60;;;6.40;77.47
78751;BME280;68070;50.954;11.060;2023-11-19T00:26:13;98704.94;;;6.42;77.12
78751;BME280;68070;50.954;11.060;2023-11-19T00:28:41;98695.46;;;6.44;76.93
78751;BME280;68070;50.954;11.060;2023-11-19T00:31:08;98682.30;;;6.45;76.98
78751;BME280;68070;50.954;11.060;2023-11-19T00:33:33;98668.38;;;6.45;76.88
78751;BME280;68070;50.954;11.060;2023-11-19T00:35:58;98662.44;;;6.47;77.32
78751;BME280;68070;50.954;11.060;2023-11-19T00:38:24;98654.17;;;6.49;77.64
78751;BME280;68070;50.954;11.060;2023-11-19T00:40:49;98645.61;;;6.53;77.93
78751;BME280;68070;50.954;11.060;2023-11-19T00:43:15;98636.38;;;6.54;78.10
78751;BME280;68070;50.954;11.060;2023-11-19T00:45:40;98640.11;;;6.56;77.73
78751;BME280;68070;50.954;11.060;2023-11-19T00:48:05;98635.48;;;6.53;77.78
78751;BME280;68070;50.954;11.060;2023-11-19T00:50:32;98637.77;;;6.51;77.77
78751;BME280;68070;50.954;11.060;2023-11-19T00:52:58;98629.77;;;6.49;77.88
78751;BME280;68070;50.954;11.060;2023-11-19T00:55:23;98624.83;;;6.49;77.85
78751;BME280;68070;50.954;11.060;2023-11-19T00:57:49;98617.42;;;6.51;78.07
78751;BME280;68070;50.954;11.060;2023-11-19T01:00:15;98619.20;;;6.51;78.33
78751;BME280;68070;50.954;11.060;2023-11-19T01:02:45;98612.02;;;6.50;78.29
78751;BME280;68070;50.954;11.060;2023-11-19T01:05:10;98603.66;;;6.51;78.17
78751;BME280;68070;50.954;11.060;2023-11-19T01:07:39;98604.65;;;6.52;78.09
78751;BME280;68070;50.954;11.060;2023-11-19T01:10:05;98610.36;;;6.54;78.69
78751;BME280;68070;50.954;11.060;2023-11-19T01:12:31;98608.42;;;6.56;79.01
78751;BME280;68070;50.954;11.060;2023-11-19T01:14:56;98608.76;;;6.59;78.88
78751;BME280;68070;50.954;11.060;2023-11-19T01:17:23;98598.77;;;6.55;79.24
78751;BME280;68070;50.954;11.060;2023-11-19T01:19:48;98603.70;;;6.53;79.73
78751;BME280;68070;50.954;11.060;2023-11-19T01:22:15;98598.42;;;6.53;79.75
78751;BME280;68070;50.954;11.060;2023-11-19T01:24:40;98595.39;;;6.56;80.30
78751;BME280;68070;50.954;11.060;2023-11-19T01:27:06;98585.68;;;6.58;80.55
78751;BME280;68070;50.954;11.060;2023-11-19T01:29:31;98586.45;;;6.60;80.42
78751;BME280;68070;50.954;11.060;2023-11-19T01:31:56;98592.53;;;6.61;80.27
78751;BME280;68070;50.954;11.060;2023-11-19T01:34:22;98586.21;;;6.60;80.54
78751;BME280;68070;50.954;11.060;2023-11-19T01:36:47;98589.17;;;6.64;80.17
78751;BME280;68070;50.954;11.060;2023-11-19T01:39:14;98581.45;;;6.63;80.06
78751;BME280;68070;50.954;11.060;2023-11-19T01:41:41;98581.02;;;6.65;80.01
78751;BME280;68070;50.954;11.060;2023-11-19T01:44:06;98573.52;;;6.65;79.76
78751;BME280;68070;50.954;11.060;2023-11-19T01:46:32;98575.31;;;6.65;79.72
78751;BME280;68070;50.954;11.060;2023-11-19T01:49:00;98563.92;;;6.69;79.76
78751;BME280;68070;50.954;11.060;2023-11-19T01:51:27;98553.80;;;6.72;79.39
78751;BME280;68070;50.954;11.060;2023-11-19T01:53:53;98547.65;;;6.71;79.47
78751;BME280;68070;50.954;11.060;2023-11-19T01:56:20;98533.38;;;6.68;79.83
78751;BME280;68070;50.954;11.060;2023-11-19T01:58:46;98520.67;;;6.68;79.28
78751;BME280;68070;50.954;11.060;2023-11-19T02:01:14;98514.55;;;6.67;79.54
78751;BME280;68070;50.954;11.060;2023-11-19T02:03:40;98495.13;;;6.69;79.57
78751;BME280;68070;50.954;11.060;2023-11-19T02:06:06;98476.63;;;6.70;79.58
78751;BME280;68070;50.954;11.060;2023-11-19T02:08:32;98484.69;;;6.71;79.31
78751;BME280;68070;50.954;11.060;2023-11-19T02:10:57;98482.84;;;6.72;79.47
78751;BME280;68070;50.954;11.060;2023-11-19T02:13:26;98473.73;;;6.77;79.46
78751;BME280;68070;50.954;11.060;2023-11-19T02:15:52;98467.41;;;6.81;79.49
78751;BME280;68070;50.954;11.060;2023-11-19T02:20:51;98464.41;;;6.84;79.12
78751;BME280;68070;50.954;11.060;2023-11-19T02:23:18;98469.77;;;6.86;79.14
78751;BME280;68070;50.954;11.060;2023-11-19T02:28:32;98455.01;;;6.97;78.84
78751;BME280;68070;50.954;11.060;2023-11-19T02:30:58;98443.52;;;6.99;78.72
78751;BME280;68070;50.954;11.060;2023-11-19T02:33:23;98437.48;;;7.02;78.27
78751;BME280;68070;50.954;11.060;2023-11-19T02:35:50;98447.67;;;7.06;78.38
78751;BME280;68070;50.954;11.060;2023-11-19T02:38:16;98441.58;;;7.12;78.71
78751;BME280;68070;50.954;11.060;2023-11-19T02:40:42;98439.92;;;7.15;78.15
78751;BME280;68070;50.954;11.060;2023-11-19T02:43:07;98442.27;;;7.17;78.14
78751;BME280;68070;50.954;11.060;2023-11-19T02:45:34;98455.64;;;7.18;78.05
78751;BME280;68070;50.954;11.060;2023-11-19T02:47:59;98463.45;;;7.18;78.22
78751;BME280;68070;50.954;11.060;2023-11-19T02:50:27;98469.02;;;7.27;78.11
78751;BME280;68070;50.954;11.060;2023-11-19T02:52:54;98469.33;;;7.30;78.23
78751;BME280;68070;50.954;11.060;2023-11-19T02:55:21;98465.09;;;7.32;77.97
78751;BME280;68070;50.954;11.060;2023-11-19T02:57:49;98457.46;;;7.32;77.72
78751;BME280;68070;50.954;11.060;2023-11-19T03:00:19;98455.90;;;7.35;77.80
78751;BME280;68070;50.954;11.060;2023-11-19T03:02:49;98453.05;;;7.40;77.74
78751;BME280;68070;50.954;11.060;2023-11-19T03:05:24;98453.02;;;7.48;77.59
78751;BME280;68070;50.954;11.060;2023-11-19T03:07:49;98450.73;;;7.50;77.54
78751;BME280;68070;50.954;11.060;2023-11-19T03:10:14;98452.64;;;7.51;77.42
78751;BME280;68070;50.954;11.060;2023-11-19T03:12:41;98455.08;;;7.51;77.45
78751;BME280;68070;50.954;11.060;2023-11-19T03:15:07;98453.42;;;7.55;77.43
78751;BME280;68070;50.954;11.060;2023-11-19T03:17:41;98444.87;;;7.58;77.55
78751;BME280;68070;50.954;11.060;2023-11-19T03:20:09;98438.15;;;7.58;77.24
78751;BME280;68070;50.954;11.060;2023-11-19T03:22:36;98452.56;;;7.59;77.17
78751;BME280;68070;50.954;11.060;2023-11-19T03:25:02;98463.41;;;7.61;77.22
78751;BME280;68070;50.954;11.060;2023-11-19T03:27:27;98463.77;;;7.59;78.23
78751;BME280;68070;50.954;11.060;2023-11-19T03:29:52;98457.39;;;7.59;78.18
78751;BME280;68070;50.954;11.060;2023-11-19T03:32:18;98452.67;;;7.60;78.23
78751;BME280;68070;50.954;11.060;2023-11-19T03:34:43;98443.58;;;7.61;78.32
78751;BME280;68070;50.954;11.060;2023-11-19T03:37:08;98444.27;;;7.61;78.31
78751;BME280;68070;50.954;11.060;2023-11-19T03:39:34;98442.94;;;7.62;78.07
78751;BME280;68070;50.954;11.060;2023-11-19T03:41:59;98448.84;;;7.62;77.83
78751;BME280;68070;50.954;11.060;2023-11-19T03:44:26;98442.53;;;7.63;77.84
78751;BME280;68070;50.954;11.060;2023-11-19T03:46:52;98434.84;;;7.64;77.81
78751;BME280;68070;50.954;11.060;2023-11-19T03:49:17;98432.48;;;7.68;77.82
78751;BME280;68070;50.954;11.060;2023-11-19T03:51:43;98422.76;;;7.70;77.84
78751;BME280;68070;50.954;11.060;2023-11-19T03:54:09;98429.45;;;7.71;78.00
78751;BME280;68070;50.954;11.060;2023-11-19T03:56:34;98421.43;;;7.69;78.18
78751;BME280;68070;50.954;11.060;2023-11-19T03:58:59;98414.42;;;7.70;78.70
78751;BME280;68070;50.954;11.060;2023-11-19T04:01:25;98410.58;;;7.72;78.88
78751;BME280;68070;50.954;11.060;2023-11-19T04:03:50;98408.54;;;7.71;79.22
78751;BME280;68070;50.954;11.060;2023-11-19T04:06:15;98398.23;;;7.66;79.76
78751;BME280;68070;50.954;11.060;2023-11-19T04:08:41;98382.20;;;7.63;79.98
78751;BME280;68070;50.954;11.060;2023-11-19T04:11:07;98383.45;;;7.65;80.39
78751;BME280;68070;50.954;11.060;2023-11-19T04:13:34;98396.99;;;7.64;80.52
78751;BME280;68070;50.954;11.060;2023-11-19T04:15:59;98404.31;;;7.65;80.16
78751;BME280;68070;50.954;11.060;2023-11-19T04:18:25;98385.86;;;7.63;80.37
78751;BME280;68070;50.954;11.060;2023-11-19T04:20:50;98393.94;;;7.67;80.18
78751;BME280;68070;50.954;11.060;2023-11-19T04:23:16;98395.38;;;7.66;80.42
78751;BME280;68070;50.954;11.060;2023-11-19T04:25:42;98383.77;;;7.66;80.50
78751;BME280;68070;50.954;11.060;2023-11-19T04:28:07;98390.69;;;7.68;80.20
78751;BME280;68070;50.954;11.060;2023-11-19T04:30:33;98397.96;;;7.65;80.38
78751;BME280;68070;50.954;11.060;2023-11-19T04:32:59;98399.36;;;7.65;80.62
78751;BME280;68070;50.954;11.060;2023-11-19T04:35:24;98400.69;;;7.69;80.55
78751;BME280;68070;50.954;11.060;2023-11-19T04:37:50;98397.37;;;7.73;80.41
78751;BME280;68070;50.954;11.060;2023-11-19T04:40:16;98395.05;;;7.76;80.32
78751;BME280;68070;50.954;11.060;2023-11-19T04:42:43;98380.77;;;7.75;80.31
78751;BME280;68070;50.954;11.060;2023-11-19T04:45:09;98374.21;;;7.77;79.88
78751;BME280;68070;50.954;11.060;2023-11-19T04:47:36;98374.89;;;7.77;80.22
78751;BME280;68070;50.954;11.060;2023-11-19T04:50:02;98377.23;;;7.82;80.04
78751;BME280;68070;50.954;11.060;2023-11-19T04:52:28;98392.84;;;7.84;80.29
78751;BME280;68070;50.954;11.060;2023-11-19T04:54:54;98397.77;;;7.87;80.21
78751;BME280;68070;50.954;11.060;2023-11-19T04:57:19;98401.00;;;7.89;80.12
78751;BME280;68070;50.954;11.060;2023-11-19T04:59:44;98403.41;;;7.87;80.46
78751;BME280;68070;50.954;11.060;2023-11-19T05:02:10;98395.77;;;7.89;80.34
78751;BME280;68070;50.954;11.060;2023-11-19T05:04:36;98384.18;;;7.93;80.29
78751;BME280;68070;50.954;11.060;2023-11-19T05:07:03;98378.94;;;7.95;79.73
78751;BME280;68070;50.954;11.060;2023-11-19T05:09:30;98357.92;;;7.94;79.85
78751;BME280;68070;50.954;11.060;2023-11-19T05:11:56;98357.83;;;7.93;80.25
78751;BME280;68070;50.954;11.060;2023-11-19T05:14:21;98343.50;;;7.93;80.15
78751;BME280;68070;50.954;11.060;2023-11-19T05:16:47;98339.24;;;7.98;80.13
78751;BME280;68070;50.954;11.060;2023-11-19T05:19:12;98328.30;;;7.99;80.13
78751;BME280;68070;50.954;11.060;2023-11-19T05:21:42;98337.38;;;7.96;80.20
78751;BME280;68070;50.954;11.060;2023-11-19T05:24:08;98340.83;;;7.90;80.82
78751;BME280;68070;50.954;11.060;2023-11-19T05:26:33;98338.33;;;7.96;80.56
78751;BME280;68070;50.954;11.060;2023-11-19T05:28:58;98336.11;;;8.01;80.59
78751;BME280;68070;50.954;11.060;2023-11-19T05:31:23;98348.50;;;8.06;80.36
78751;BME280;68070;50.954;11.060;2023-11-19T05:33:49;98367.45;;;8.09;80.33
78751;BME280;68070;50.954;11.060;2023-11-19T05:36:14;98375.57;;;8.14;79.85
78751;BME280;68070;50.954;11.060;2023-11-19T05:38:40;98383.60;;;8.15;79.91
78751;BME280;68070;50.954;11.060;2023-11-19T05:41:05;98387.94;;;8.19;79.73
78751;BME280;68070;50.954;11.060;2023-11-19T05:43:31;98384.36;;;8.24;79.74
78751;BME280;68070;50.954;11.060;2023-11-19T05:45:57;98384.00;;;8.26;79.98
78751;BME280;68070;50.954;11.060;2023-11-19T05:48:22;98384.45;;;8.30;79.80
78751;BME280;68070;50.954;11.060;2023-11-19T05:50:48;98387.82;;;8.32;79.69
78751;BME280;68070;50.954;11.060;2023-11-19T05:53:15;98387.75;;;8.36;79.77
78751;BME280;68070;50.954;11.060;2023-11-19T05:55:41;98396.31;;;8.38;79.72
78751;BME280;68070;50.954;11.060;2023-11-19T05:58:27;98393.86;;;8.42;79.90
78751;BME280;68070;50.954;11.060;2023-11-19T06:00:56;98389.91;;;8.47;79.73
78751;BME280;68070;50.954;11.060;2023-11-19T06:03:22;98388.41;;;8.53;79.31
78751;BME280;68070;50.954;11.060;2023-11-19T06:05:48;98389.43;;;8.56;79.28
78751;BME280;68070;50.954;11.060;2023-11-19T06:08:14;98389.13;;;8.58;79.11
78751;BME280;68070;50.954;11.060;2023-11-19T06:10:43;98389.87;;;8.57;78.98
78751;BME280;68070;50.954;11.060;2023-11-19T06:13:12;98387.91;;;8.57;79.00
78751;BME280;68070;50.954;11.060;2023-11-19T06:15:41;98377.66;;;8.59;78.99
78751;BME280;68070;50.954;11.060;2023-11-19T06:18:07;98380.48;;;8.64;79.10
78751;BME280;68070;50.954;11.060;2023-11-19T06:20:33;98374.14;;;8.63;79.14
78751;BME280;68070;50.954;11.060;2023-11-19T06:22:59;98366.60;;;8.62;78.93
78751;BME280;68070;50.954;11.060;2023-11-19T06:25:25;98364.73;;;8.63;79.22
78751;BME280;68070;50.954;11.060;2023-11-19T06:27:51;98360.27;;;8.66;79.37
78751;BME280;68070;50.954;11.060;2023-11-19T06:30:16;98360.46;;;8.70;79.48
78751;BME280;68070;50.954;11.060;2023-11-19T06:32:42;98351.73;;;8.71;79.20
78751;BME280;68070;50.954;11.060;2023-11-19T06:35:07;98343.73;;;8.67;79.24
78751;BME280;68070;50.954;11.060;2023-11-19T06:37:33;98347.35;;;8.63;78.95
78751;BME280;68070;50.954;11.060;2023-11-19T06:39:59;98355.86;;;8.54;79.52
78751;BME280;68070;50.954;11.060;2023-11-19T06:42:24;98359.41;;;8.52;79.63
78751;BME280;68070;50.954;11.060;2023-11-19T06:44:50;98348.89;;;8.48;79.82
78751;BME280;68070;50.954;11.060;2023-11-19T06:47:17;98348.56;;;8.45;79.77
78751;BME280;68070;50.954;11.060;2023-11-19T06:49:44;98348.80;;;8.37;80.16
78751;BME280;68070;50.954;11.060;2023-11-19T06:52:09;98355.85;;;8.33;80.40
78751;BME280;68070;50.954;11.060;2023-11-19T06:54:35;98357.54;;;8.30;80.23
78751;BME280;68070;50.954;11.060;2023-11-19T06:57:00;98359.16;;;8.32;80.14
78751;BME280;68070;50.954;11.060;2023-11-19T06:59:26;98363.00;;;8.33;80.47
78751;BME280;68070;50.954;11.060;2023-11-19T07:01:51;98363.84;;;8.38;80.48
78751;BME280;68070;50.954;11.060;2023-11-19T07:04:17;98366.91;;;8.44;80.10
78751;BME280;68070;50.954;11.060;2023-11-19T07:06:42;98357.85;;;8.49;80.03
78751;BME280;68070;50.954;11.060;2023-11-19T07:09:08;98352.25;;;8.53;79.90
78751;BME280;68070;50.954;11.060;2023-11-19T07:11:41;98352.29;;;8.57;80.03
78751;BME280;68070;50.954;11.060;2023-11-19T07:14:07;98356.35;;;8.57;80.30
78751;BME280;68070;50.954;11.060;2023-11-19T07:16:34;98359.04;;;8.61;80.08
78751;BME280;68070;50.954;11.060;2023-11-19T07:19:00;98356.95;;;8.70;79.77
78751;BME280;68070;50.954;11.060;2023-11-19T07:21:26;98347.48;;;8.70;79.72
78751;BME280;68070;50.954;11.060;2023-11-19T07:23:54;98352.25;;;8.78;79.60
78751;BME280;68070;50.954;11.060;2023-11-19T07:26:19;98358.03;;;8.84;79.56
78751;BME280;68070;50.954;11.060;2023-11-19T07:28:45;98357.95;;;8.84;79.54
78751;BME280;68070;50.954;11.060;2023-11-19T07:31:10;98355.81;;;8.80;79.49
78751;BME280;68070;50.954;11.060;2023-11-19T07:33:36;98357.23;;;8.73;79.88
78751;BME280;68070;50.954;11.060;2023-11-19T07:36:02;98356.14;;;8.71;80.31
78751;BME280;68070;50.954;11.060;2023-11-19T07:38:27;98354.06;;;8.82;80.86
78751;BME280;68070;50.954;11.060;2023-11-19T07:40:53;98355.73;;;8.94;81.59
78751;BME280;68070;50.954;11.060;2023-11-19T07:43:18;98362.52;;;9.07;81.64
78751;BME280;68070;50.954;11.060;2023-11-19T07:45:43;98369.69;;;9.22;81.02
78751;BME280;68070;50.954;11.060;2023-11-19T07:48:10;98373.89;;;9.36;80.82
78751;BME280;68070;50.954;11.060;2023-11-19T07:50:38;98372.59;;;9.46;80.75
78751;BME280;68070;50.954;11.060;2023-11-19T07:53:06;98378.36;;;9.53;80.58
78751;BME280;68070;50.954;11.060;2023-11-19T07:55:33;98380.04;;;9.72;80.09
78751;BME280;68070;50.954;11.060;2023-11-19T07:57:58;98379.95;;;9.90;79.32
78751;BME280;68070;50.954;11.060;2023-11-19T08:00:23;98371.66;;;9.94;78.81
78751;BME280;68070;50.954;11.060;2023-11-19T08:02:49;98372.77;;;9.96;78.87
78751;BME280;68070;50.954;11.060;2023-11-19T08:05:14;98374.40;;;10.02;78.67
78751;BME280;68070;50.954;11.060;2023-11-19T08:07:39;98371.38;;;10.12;78.43
78751;BME280;68070;50.954;11.060;2023-11-19T08:10:05;98363.23;;;10.23;78.45
78751;BME280;68070;50.954;11.060;2023-11-19T08:12:35;98367.59;;;10.33;78.12
78751;BME280;68070;50.954;11.060;2023-11-19T08:15:02;98363.21;;;10.38;78.02
78751;BME280;68070;50.954;11.060;2023-11-19T08:17:27;98353.94;;;10.43;77.75
78751;BME280;68070;50.954;11.060;2023-11-19T08:19:53;98351.66;;;10.49;77.70
78751;BME280;68070;50.954;11.060;2023-11-19T08:22:18;98353.39;;;10.51;77.46
78751;BME280;68070;50.954;11.060;2023-11-19T08:24:43;98352.70;;;10.57;77.70
78751;BME280;68070;50.954;11.060;2023-11-19T08:27:09;98352.84;;;10.62;77.91
78751;BME280;68070;50.954;11.060;2023-11-19T08:29:34;98347.39;;;10.65;78.88
78751;BME280;68070;50.954;11.060;2023-11-19T08:32:01;98341.91;;;10.71;79.51
78751;BME280;68070;50.954;11.060;2023-11-19T08:34:28;98343.17;;;10.79;78.43
78751;BME280;68070;50.954;11.060;2023-11-19T08:36:53;98331.85;;;10.91;77.92
78751;BME280;68070;50.954;11.060;2023-11-19T08:39:19;98327.59;;;11.62;76.26
78751;BME280;68070;50.954;11.060;2023-11-19T08:41:47;98334.86;;;13.05;73.52
78751;BME280;68070;50.954;11.060;2023-11-19T08:44:13;98335.20;;;13.73;68.30
78751;BME280;68070;50.954;11.060;2023-11-19T08:46:39;98334.60;;;15.99;65.00
78751;BME280;68070;50.954;11.060;2023-11-19T08:49:05;98338.91;;;18.29;58.35
78751;BME280;68070;50.954;11.060;2023-11-19T08:51:33;98342.77;;;20.14;52.15
78751;BME280;68070;50.954;11.060;2023-11-19T08:53:58;98348.73;;;21.76;48.60
78751;BME280;68070;50.954;11.060;2023-11-19T08:56:24;98342.70;;;22.91;42.16
78751;BME280;68070;50.954;11.060;2023-11-19T08:58:49;98344.98;;;23.85;43.36
78751;BME280;68070;50.954;11.060;2023-11-19T09:01:14;98354.92;;;24.71;38.05
78751;BME280;68070;50.954;11.060;2023-11-19T09:03:40;98360.94;;;25.19;35.66
78751;BME280;68070;50.954;11.060;2023-11-19T09:06:06;98354.45;;;24.94;33.66
78751;BME280;68070;50.954;11.060;2023-11-19T09:08:31;98355.70;;;25.13;35.74
78751;BME280;68070;50.954;11.060;2023-11-19T09:10:56;98360.85;;;25.15;33.35
78751;BME280;68070;50.954;11.060;2023-11-19T09:13:22;98357.27;;;25.64;34.46
78751;BME280;68070;50.954;11.060;2023-11-19T09:15:48;98371.86;;;25.84;31.76
78751;BME280;68070;50.954;11.060;2023-11-19T09:18:13;98373.06;;;25.52;32.19
78751;BME280;68070;50.954;11.060;2023-11-19T09:20:38;98375.58;;;24.89;31.80
78751;BME280;68070;50.954;11.060;2023-11-19T09:23:05;98372.89;;;24.65;32.51
78751;BME280;68070;50.954;11.060;2023-11-19T09:25:31;98379.40;;;24.65;31.97
78751;BME280;68070;50.954;11.060;2023-11-19T09:27:56;98381.70;;;24.78;32.43
78751;BME280;68070;50.954;11.060;2023-11-19T09:30:22;98398.39;;;24.76;31.76
78751;BME280;68070;50.954;11.060;2023-11-19T09:32:47;98402.09;;;24.68;32.42
78751;BME280;68070;50.954;11.060;2023-11-19T09:35:13;98397.02;;;24.46;32.68
78751;BME280;68070;50.954;11.060;2023-11-19T09:37:40;98393.66;;;24.59;32.85
78751;BME280;68070;50.954;11.060;2023-11-19T09:40:06;98390.40;;;24.22;32.58
78751;BME280;68070;50.954;11.060;2023-11-19T09:42:44;98395.44;;;22.75;35.15
78751;BME280;68070;50.954;11.060;2023-11-19T09:45:16;98395.05;;;21.28;37.87
78751;BME280;68070;50.954;11.060;2023-11-19T09:47:44;98392.30;;;20.04;40.28
78751;BME280;68070;50.954;11.060;2023-11-19T09:50:19;98379.13;;;19.20;42.32
78751;BME280;68070;50.954;11.060;2023-11-19T09:52:46;98378.73;;;18.04;44.82
78751;BME280;68070;50.954;11.060;2023-11-19T09:55:12;98369.98;;;17.68;45.87
78751;BME280;68070;50.954;11.060;2023-11-19T09:57:41;98363.10;;;16.97;47.67
78751;BME280;68070;50.954;11.060;2023-11-19T10:00:08;98366.25;;;16.22;49.88
78751;BME280;68070;50.954;11.060;2023-11-19T10:02:36;98369.86;;;15.60;52.01
78751;BME280;68070;50.954;11.060;2023-11-19T10:05:05;98372.94;;;15.03;53.30
78751;BME280;68070;50.954;11.060;2023-11-19T10:07:32;98371.55;;;14.54;55.26
78751;BME280;68070;50.954;11.060;2023-11-19T10:09:59;98368.46;;;14.11;56.03
78751;BME280;68070;50.954;11.060;2023-11-19T10:12:27;98374.02;;;13.70;57.90
78751;BME280;68070;50.954;11.060;2023-11-19T10:14:55;98374.72;;;13.37;59.13
78751;BME280;68070;50.954;11.060;2023-11-19T10:17:21;98368.54;;;13.17;59.90
78751;BME280;68070;50.954;11.060;2023-11-19T10:19:48;98374.85;;;13.03;60.76
78751;BME280;68070;50.954;11.060;2023-11-19T10:22:13;98388.88;;;13.35;60.54
78751;BME280;68070;50.954;11.060;2023-11-19T10:24:41;98389.20;;;13.37;60.37
78751;BME280;68070;50.954;11.060;2023-11-19T10:27:07;98398.89;;;13.33;60.63
78751;BME280;68070;50.954;11.060;2023-11-19T10:29:36;98402.41;;;13.24;61.27
78751;BME280;68070;50.954;11.060;2023-11-19T10:32:01;98404.87;;;13.17;61.60
78751;BME280;68070;50.954;11.060;2023-11-19T10:34:27;98413.91;;;13.20;61.52
78751;BME280;68070;50.954;11.060;2023-11-19T10:36:53;98414.74;;;13.35;61.16
78751;BME280;68070;50.954;11.060;2023-11-19T10:39:19;98409.27;;;13.45;61.71
78751;BME280;68070;50.954;11.060;2023-11-19T10:41:46;98402.92;;;13.65;61.40
78751;BME280;68070;50.954;11.060;2023-11-19T10:44:11;98404.59;;;13.81;61.01
78751;BME280;68070;50.954;11.060;2023-11-19T10:46:41;98405.30;;;13.95;60.77
78751;BME280;68070;50.954;11.060;2023-11-19T10:49:07;98410.60;;;14.14;60.64
78751;BME280;68070;50.954;11.060;2023-11-19T10:51:33;98410.58;;;14.28;59.88
78751;BME280;68070;50.954;11.060;2023-11-19T10:54:03;98416.81;;;14.34;59.89
78751;BME280;68070;50.954;11.060;2023-11-19T10:56:34;98408.45;;;14.48;59.11
78751;BME280;68070;50.954;11.060;2023-11-19T10:59:00;98404.48;;;14.51;58.84
78751;BME280;68070;50.954;11.060;2023-11-19T11:01:32;98403.23;;;14.36;58.37
78751;BME280;68070;50.954;11.060;2023-11-19T11:04:00;98402.41;;;14.28;58.27
78751;BME280;68070;50.954;11.060;2023-11-19T11:06:27;98405.53;;;14.08;57.80
78751;BME280;68070;50.954;11.060;2023-11-19T11:08:53;98402.65;;;13.95;58.44
78751;BME280;68070;50.954;11.060;2023-11-19T11:11:20;98401.20;;;13.75;58.38
78751;BME280;68070;50.954;11.060;2023-11-19T11:13:50;98403.27;;;13.54;58.62
78751;BME280;68070;50.954;11.060;2023-11-19T11:16:19;98395.61;;;13.39;58.66
78751;BME280;68070;50.954;11.060;2023-11-19T11:18:46;98400.83;;;13.33;58.52
78751;BME280;68070;50.954;11.060;2023-11-19T11:21:17;98397.93;;;13.28;58.85
78751;BME280;68070;50.954;11.060;2023-11-19T11:24:12;98389.77;;;13.26;58.74
78751;BME280;68070;50.954;11.060;2023-11-19T11:29:39;98384.83;;;13.17;58.94
78751;BME280;68070;50.954;11.060;2023-11-19T11:32:25;98385.55;;;13.19;59.28
78751;BME280;68070;50.954;11.060;2023-11-19T11:37:49;98391.73;;;13.31;58.64
78751;BME280;68070;50.954;11.060;2023-11-19T11:40:18;98390.17;;;13.30;58.76
78751;BME280;68070;50.954;11.060;2023-11-19T11:42:44;98389.88;;;13.30;58.47
78751;BME280;68070;50.954;11.060;2023-11-19T11:45:14;98391.77;;;13.38;58.65
78751;BME280;68070;50.954;11.060;2023-11-19T11:50:18;98401.32;;;13.28;58.49
78751;BME280;68070;50.954;11.060;2023-11-19T11:57:50;98408.99;;;13.39;58.55
78751;BME280;68070;50.954;11.060;2023-11-19T12:00:42;98412.95;;;13.28;58.49
78751;BME280;68070;50.954;11.060;2023-11-19T12:03:08;98413.16;;;13.16;59.20
78751;BME280;68070;50.954;11.060;2023-11-19T12:05:45;98414.41;;;13.06;59.07
78751;BME280;68070;50.954;11.060;2023-11-19T12:08:12;98418.16;;;13.05;59.32
78751;BME280;68070;50.954;11.060;2023-11-19T12:10:47;98420.08;;;13.10;59.76
78751;BME280;68070;50.954;11.060;2023-11-19T12:13:14;98417.29;;;13.10;59.80
78751;BME280;68070;50.954;11.060;2023-11-19T12:18:24;98418.74;;;13.40;59.39
78751;BME280;68070;50.954;11.060;2023-11-19T12:20:50;98417.03;;;13.47;59.45
78751;BME280;68070;50.954;11.060;2023-11-19T12:23:15;98414.91;;;13.50;58.99
78751;BME280;68070;50.954;11.060;2023-11-19T12:25:41;98418.09;;;13.49;59.00
78751;BME280;68070;50.954;11.060;2023-11-19T12:28:11;98415.08;;;13.56;59.38
78751;BME280;68070;50.954;11.060;2023-11-19T12:30:37;98422.75;;;13.69;58.77
78751;BME280;68070;50.954;11.060;2023-11-19T12:33:08;98425.70;;;13.84;58.63
78751;BME280;68070;50.954;11.060;2023-11-19T12:35:39;98421.44;;;14.02;57.89
78751;BME280;68070;50.954;11.060;2023-11-19T12:38:04;98415.49;;;14.30;57.76
78751;BME280;68070;50.954;11.060;2023-11-19T12:40:29;98414.30;;;14.51;56.88
78751;BME280;68070;50.954;11.060;2023-11-19T12:42:55;98411.64;;;14.72;57.11
78751;BME280;68070;50.954;11.060;2023-11-19T12:45:21;98408.94;;;14.86;56.66
78751;BME280;68070;50.954;11.060;2023-11-19T12:47:49;98405.54;;;14.95;55.70
78751;BME280;68070;50.954;11.060;2023-11-19T12:50:17;98400.65;;;15.04;55.16
78751;BME280;68070;50.954;11.060;2023-11-19T12:52:55;98400.77;;;15.18;55.32
78751;BME280;68070;50.954;11.060;2023-11-19T12:55:27;98409.79;;;15.30;55.06
78751;BME280;68070;50.954;11.060;2023-11-19T12:57:53;98412.77;;;15.13;54.44
78751;BME280;68070;50.954;11.060;2023-11-19T13:00:24;98419.06;;;15.01;54.72
78751;BME280;68070;50.954;11.060;2023-11-19T13:02:55;98416.39;;;14.90;54.82
78751;BME280;68070;50.954;11.060;2023-11-19T13:05:22;98410.99;;;14.87;55.24
78751;BME280;68070;50.954;11.060;2023-11-19T13:07:48;98405.30;;;14.85;55.50
78751;BME280;68070;50.954;11.060;2023-11-19T13:10:13;98400.95;;;14.88;55.59
78751;BME280;68070;50.954;11.060;2023-11-19T13:12:39;98406.42;;;14.94;55.10
78751;BME280;68070;50.954;11.060;2023-11-19T13:15:06;98407.29;;;14.94;53.96